createdAt,value
2019-05-15T00:01:51.224Z,102803.08
2019-05-15T00:04:18.652Z,102803.05
2019-05-15T00:09:28.481Z,102800.24
2019-05-15T00:11:54.661Z,102797.34
2019-05-15T00:14:21.643Z,102800.45
2019-05-15T00:16:48.382Z,102794.30
2019-05-15T00:19:18.609Z,102789.48
2019-05-15T00:21:44.807Z,102790.45
2019-05-15T00:24:13.098Z,102791.05
2019-05-15T00:26:41.136Z,102786.70
2019-05-15T00:29:15.115Z,102793.80
2019-05-15T00:31:38.777Z,102788.30
2019-05-15T00:34:12.458Z,102790.23
2019-05-15T00:36:34.946Z,102790.33
2019-05-15T00:39:01.653Z,102798.91
2019-05-15T00:41:30.183Z,102795.22
2019-05-15T00:43:58.524Z,102792.30
2019-05-15T00:46:25.266Z,102796.02
2019-05-15T00:48:52.051Z,102796.42
2019-05-15T00:51:19.535Z,102794.79
2019-05-15T00:53:48.307Z,102787.34
2019-05-15T00:56:15.218Z,102791.61
2019-05-15T00:58:42.129Z,102789.06
2019-05-15T01:01:08.931Z,102788.55
2019-05-15T01:03:35.690Z,102789.97
2019-05-15T01:06:02.396Z,102789.81
2019-05-15T01:08:29.243Z,102786.30
2019-05-15T01:10:58.074Z,102783.14
2019-05-15T01:13:24.937Z,102789.28
2019-05-15T01:15:52.534Z,102788.59
2019-05-15T01:18:19.470Z,102788.04
2019-05-15T01:20:46.152Z,102781.06
2019-05-15T01:23:12.752Z,102791.34
2019-05-15T01:25:39.371Z,102788.25
2019-05-15T01:28:06.031Z,102786.80
2019-05-15T01:30:32.622Z,102787.75
2019-05-15T01:32:59.304Z,102786.48
2019-05-15T01:35:28.573Z,102790.45
2019-05-15T01:37:55.789Z,102783.43
2019-05-15T01:40:22.492Z,102782.55
2019-05-15T01:42:49.984Z,102785.20
2019-05-15T01:45:18.928Z,102778.13
2019-05-15T01:47:47.892Z,102783.02
2019-05-15T01:50:14.772Z,102784.80
2019-05-15T01:52:44.011Z,102785.69
2019-05-15T01:55:11.048Z,102779.48
2019-05-15T01:57:40.436Z,102780.38
2019-05-15T02:00:08.705Z,102779.94
2019-05-15T02:02:35.672Z,102779.47
2019-05-15T02:05:02.708Z,102782.98
2019-05-15T02:07:30.398Z,102778.11
2019-05-15T02:09:58.258Z,102772.83
2019-05-15T02:12:25.056Z,102773.18
2019-05-15T02:14:51.872Z,102776.81
2019-05-15T02:17:19.034Z,102769.27
2019-05-15T02:19:45.858Z,102772.37
2019-05-15T02:22:14.052Z,102775.87
2019-05-15T02:24:40.762Z,102770.51
2019-05-15T02:27:10.314Z,102768.36
2019-05-15T02:29:37.803Z,102761.75
2019-05-15T02:32:04.588Z,102767.46
2019-05-15T02:34:31.304Z,102766.17
2019-05-15T02:37:00.137Z,102763.11
2019-05-15T02:39:28.973Z,102767.48
2019-05-15T02:41:59.265Z,102759.95
2019-05-15T02:44:24.911Z,102759.55
2019-05-15T02:46:51.623Z,102753.24
2019-05-15T02:49:19.171Z,102756.79
2019-05-15T02:51:49.080Z,102755.37
2019-05-15T02:54:19.284Z,102748.37
2019-05-15T02:56:44.671Z,102746.20
2019-05-15T02:59:11.344Z,102746.70
2019-05-15T03:01:40.374Z,102739.63
2019-05-15T03:04:09.253Z,102742.47
2019-05-15T03:06:38.637Z,102741.79
2019-05-15T03:09:04.906Z,102750.00
2019-05-15T03:11:31.737Z,102748.87
2019-05-15T03:13:59.265Z,102747.14
2019-05-15T03:16:30.298Z,102743.22
2019-05-15T03:18:59.584Z,102750.62
2019-05-15T03:21:25.179Z,102742.67
2019-05-15T03:23:51.822Z,102742.71
2019-05-15T03:26:20.017Z,102738.20
2019-05-15T03:28:49.635Z,102745.66
2019-05-15T03:31:35.162Z,102745.36
2019-05-15T03:33:46.851Z,102750.67
2019-05-15T03:36:14.131Z,102747.53
2019-05-15T03:38:41.800Z,102745.80
2019-05-15T03:41:10.180Z,102748.90
2019-05-15T03:43:39.346Z,102743.15
2019-05-15T03:46:08.771Z,102741.83
2019-05-15T03:48:34.569Z,102735.67
2019-05-15T03:51:01.543Z,102739.23
2019-05-15T03:53:29.831Z,102740.53
2019-05-15T03:55:58.931Z,102741.44
2019-05-15T03:58:28.474Z,102737.87
2019-05-15T04:00:54.778Z,102744.55
2019-05-15T04:03:21.434Z,102740.97
2019-05-15T04:05:49.431Z,102737.59
2019-05-15T04:08:19.154Z,102737.70
2019-05-15T04:10:45.032Z,102742.03
2019-05-15T04:13:12.774Z,102738.58
2019-05-15T04:15:40.561Z,102744.97
2019-05-15T04:18:09.967Z,102744.18
2019-05-15T04:20:39.973Z,102743.59
2019-05-15T04:23:05.596Z,102743.46
2019-05-15T04:25:33.038Z,102743.19
2019-05-15T04:28:00.318Z,102747.21
2019-05-15T04:30:30.499Z,102742.73
2019-05-15T04:32:59.256Z,102738.77
2019-05-15T04:35:25.103Z,102743.26
2019-05-15T04:37:51.776Z,102742.84
2019-05-15T04:40:19.406Z,102737.00
2019-05-15T04:42:49.610Z,102739.63
2019-05-15T04:45:19.478Z,102731.94
2019-05-15T04:47:49.628Z,102742.47
2019-05-15T04:50:15.132Z,102736.16
2019-05-15T04:52:43.434Z,102730.52
2019-05-15T04:55:10.963Z,102737.10
2019-05-15T04:57:39.973Z,102729.67
2019-05-15T05:00:09.524Z,102733.59
2019-05-15T05:02:39.498Z,102729.83
2019-05-15T05:05:10.879Z,102723.64
2019-05-15T05:07:39.006Z,102722.80
2019-05-15T05:10:09.683Z,102722.67
2019-05-15T05:12:40.983Z,102718.15
2019-05-15T05:15:04.992Z,102716.00
2019-05-15T05:17:31.682Z,102721.84
2019-05-15T05:19:58.429Z,102721.29
2019-05-15T05:22:28.095Z,102721.37
2019-05-15T05:24:54.328Z,102720.78
2019-05-15T05:27:22.931Z,102718.05
2019-05-15T05:29:49.759Z,102724.31
2019-05-15T05:32:30.488Z,102724.17
2019-05-15T05:34:44.956Z,102722.33
2019-05-15T05:37:11.618Z,102731.33
2019-05-15T05:39:39.516Z,102730.63
2019-05-15T05:42:07.939Z,102724.73
2019-05-15T05:44:34.963Z,102728.30
2019-05-15T05:47:01.628Z,102718.17
2019-05-15T05:49:28.881Z,102718.35
2019-05-15T05:51:55.654Z,102719.27
2019-05-15T05:54:22.288Z,102723.39
2019-05-15T05:56:49.011Z,102718.94
2019-05-15T05:59:18.441Z,102720.08
2019-05-15T06:01:44.514Z,102725.65
2019-05-15T06:04:11.190Z,102710.16
2019-05-15T06:06:38.548Z,102720.06
2019-05-15T06:09:09.239Z,102718.89
2019-05-15T06:11:37.957Z,102722.80
2019-05-15T06:14:04.700Z,102720.23
2019-05-15T06:16:31.440Z,102718.20
2019-05-15T06:18:58.772Z,102719.95
2019-05-15T06:21:25.492Z,102719.58
2019-05-15T06:23:55.448Z,102712.11
2019-05-15T06:26:20.991Z,102718.70
2019-05-15T06:28:49.032Z,102718.70
2019-05-15T06:31:18.962Z,102717.31
2019-05-15T06:33:46.041Z,102719.98
2019-05-15T06:36:15.176Z,102714.94
2019-05-15T06:38:41.865Z,102715.86
2019-05-15T06:41:08.931Z,102719.76
2019-05-15T06:43:35.546Z,102706.91
2019-05-15T06:46:02.758Z,102723.65
2019-05-15T06:48:30.551Z,102719.80
2019-05-15T06:50:57.957Z,102713.62
2019-05-15T06:53:24.892Z,102716.05
2019-05-15T06:55:51.557Z,102719.92
2019-05-15T06:58:19.215Z,102718.84
2019-05-15T07:00:48.863Z,102714.59
2019-05-15T07:03:24.039Z,102706.62
2019-05-15T07:05:44.328Z,102712.28
2019-05-15T07:08:11.036Z,102712.34
2019-05-15T07:10:37.946Z,102710.56
2019-05-15T07:13:04.695Z,102709.62
2019-05-15T07:15:32.483Z,102710.72
2019-05-15T07:17:59.514Z,102708.39
2019-05-15T07:20:28.526Z,102703.80
2019-05-15T07:22:55.377Z,102711.66
2019-05-15T07:25:22.166Z,102703.94
2019-05-15T07:27:48.919Z,102709.39
2019-05-15T07:30:18.606Z,102697.73
2019-05-15T07:32:44.796Z,102698.13
2019-05-15T07:35:13.079Z,102689.14
2019-05-15T07:37:39.713Z,102699.52
2019-05-15T07:40:08.386Z,102697.69
2019-05-15T07:42:38.576Z,102701.64
2019-05-15T07:45:08.249Z,102688.02
2019-05-15T07:47:34.883Z,102691.35
2019-05-15T07:50:01.966Z,102687.52
2019-05-15T07:52:28.937Z,102685.40
2019-05-15T07:54:57.985Z,102686.21
2019-05-15T07:57:24.309Z,102684.88
2019-05-15T07:59:52.288Z,102683.41
2019-05-15T08:02:19.347Z,102674.56
2019-05-15T08:04:48.143Z,102681.78
2019-05-15T08:07:14.638Z,102681.13
2019-05-15T08:09:41.281Z,102673.52
2019-05-15T08:12:08.362Z,102676.98
2019-05-15T08:14:35.398Z,102667.89
2019-05-15T08:17:02.181Z,102666.34
2019-05-15T08:19:29.077Z,102668.59
2019-05-15T08:21:58.119Z,102668.23
2019-05-15T08:24:24.597Z,102664.36
2019-05-15T08:26:52.419Z,102656.67
2019-05-15T08:29:21.588Z,102661.69
2019-05-15T08:31:48.567Z,102653.63
2019-05-15T08:34:16.471Z,102645.38
2019-05-15T08:36:48.193Z,102642.16
2019-05-15T08:39:15.251Z,102640.41
2019-05-15T08:41:42.207Z,102645.70
2019-05-15T08:44:08.940Z,102643.84
2019-05-15T08:46:35.691Z,102644.27
2019-05-15T08:49:02.520Z,102638.41
2019-05-15T08:51:29.472Z,102632.70
2019-05-15T08:53:57.999Z,102636.08
2019-05-15T08:56:24.724Z,102635.27
2019-05-15T08:58:51.732Z,102627.66
2019-05-15T09:01:18.602Z,102630.16
2019-05-15T09:03:45.649Z,102621.83
2019-05-15T09:06:12.277Z,102623.34
2019-05-15T09:08:39.452Z,102617.91
2019-05-15T09:11:08.764Z,102622.35
2019-05-15T09:13:34.756Z,102614.08
2019-05-15T09:16:01.451Z,102609.45
2019-05-15T09:18:28.450Z,102604.59
2019-05-15T09:20:55.105Z,102597.50
2019-05-15T09:23:22.594Z,102595.02
2019-05-15T09:25:49.842Z,102599.43
2019-05-15T09:28:18.909Z,102591.91
2019-05-15T09:30:48.102Z,102591.05
2019-05-15T09:33:14.559Z,102591.02
2019-05-15T09:35:41.240Z,102582.23
2019-05-15T09:38:08.732Z,102578.00
2019-05-15T09:40:43.267Z,102577.25
2019-05-15T09:43:04.281Z,102577.36
2019-05-15T09:45:30.920Z,102579.45
2019-05-15T09:48:01.382Z,102577.61
2019-05-15T09:50:28.610Z,102574.83
2019-05-15T09:52:55.443Z,102566.25
2019-05-15T09:55:24.589Z,102555.29
2019-05-15T09:57:54.841Z,102569.34
2019-05-15T10:00:20.369Z,102553.98
2019-05-15T10:02:48.623Z,102544.23
2019-05-15T10:05:15.680Z,102553.19
2019-05-15T10:07:42.411Z,102552.23
2019-05-15T10:10:10.279Z,102550.98
2019-05-15T10:12:39.204Z,102541.42
2019-05-15T10:15:10.932Z,102542.13
2019-05-15T10:17:34.930Z,102532.91
2019-05-15T10:20:01.888Z,102533.20
2019-05-15T10:22:28.693Z,102529.92
2019-05-15T10:24:55.327Z,102531.41
2019-05-15T10:27:22.130Z,102523.93
2019-05-15T10:29:48.732Z,102529.68
2019-05-15T10:32:15.778Z,102517.48
2019-05-15T10:34:42.435Z,102518.48
2019-05-15T10:37:09.102Z,102514.89
2019-05-15T10:39:38.300Z,102501.68
2019-05-15T10:42:04.688Z,102501.15
2019-05-15T10:44:31.393Z,102501.44
2019-05-15T10:46:58.555Z,102500.99
2019-05-15T10:49:25.277Z,102500.83
2019-05-15T10:51:51.853Z,102492.30
2019-05-15T10:54:19.172Z,102496.30
2019-05-15T10:56:46.448Z,102493.20
2019-05-15T10:59:13.223Z,102486.77
2019-05-15T11:01:40.007Z,102479.75
2019-05-15T11:04:09.219Z,102484.52
2019-05-15T11:06:35.647Z,102482.23
2019-05-15T11:09:03.887Z,102479.33
2019-05-15T11:11:30.506Z,102477.45
2019-05-15T11:14:00.173Z,102470.80
2019-05-15T11:16:28.253Z,102473.66
2019-05-15T11:18:54.480Z,102470.03
2019-05-15T11:21:21.228Z,102462.49
2019-05-15T11:23:49.418Z,102470.92
2019-05-15T11:26:19.361Z,102469.69
2019-05-15T11:28:49.457Z,102460.34
2019-05-15T11:31:14.590Z,102459.45
2019-05-15T11:33:41.362Z,102462.80
2019-05-15T11:36:08.218Z,102455.92
2019-05-15T11:38:38.290Z,102450.68
2019-05-15T11:41:05.548Z,102451.62
2019-05-15T11:43:38.261Z,102451.27
2019-05-15T11:46:06.088Z,102445.34
2019-05-15T11:48:33.094Z,102449.90
2019-05-15T11:50:59.971Z,102446.31
2019-05-15T11:53:28.464Z,102449.00
2019-05-15T11:55:55.187Z,102440.16
2019-05-15T11:58:21.909Z,102440.37
2019-05-15T12:00:49.313Z,102442.95
2019-05-15T12:03:18.909Z,102438.71
2019-05-15T12:05:44.682Z,102438.24
2019-05-15T12:08:12.662Z,102433.13
2019-05-15T12:10:39.302Z,102433.30
2019-05-15T12:13:05.974Z,102427.73
2019-05-15T12:15:32.717Z,102435.73
2019-05-15T12:17:59.319Z,102428.20
2019-05-15T12:20:28.375Z,102419.16
2019-05-15T12:22:55.545Z,102414.72
2019-05-15T12:25:22.159Z,102420.13
2019-05-15T12:27:49.304Z,102408.45
2019-05-15T12:30:16.246Z,102409.80
2019-05-15T12:32:42.828Z,102410.45
2019-05-15T12:35:09.672Z,102405.08
2019-05-15T12:37:39.922Z,102413.23
2019-05-15T12:59:58.119Z,102406.95
2019-05-15T13:02:24.325Z,102403.19
2019-05-15T13:04:51.046Z,102396.86
2019-05-15T13:07:19.878Z,102395.05
2019-05-15T13:09:46.208Z,102396.55
2019-05-15T13:12:13.253Z,102397.30
2019-05-15T13:14:39.968Z,102393.44
2019-05-15T13:17:06.653Z,102390.55
2019-05-15T13:19:33.244Z,102403.04
2019-05-15T13:22:00.012Z,102392.28
2019-05-15T13:24:28.429Z,102400.50
2019-05-15T13:26:55.244Z,102389.23
2019-05-15T13:29:22.128Z,102387.38
2019-05-15T13:31:48.981Z,102394.62
2019-05-15T13:34:15.831Z,102389.30
2019-05-15T13:36:43.079Z,102392.48
2019-05-15T13:39:09.698Z,102393.30
2019-05-15T13:41:38.427Z,102388.88
2019-05-15T13:44:05.244Z,102374.10
2019-05-15T13:46:32.995Z,102381.57
2019-05-15T13:49:00.032Z,102379.97
2019-05-15T13:51:29.066Z,102375.89
2019-05-15T13:53:55.457Z,102367.34
2019-05-15T13:56:22.352Z,102366.18
2019-05-15T13:58:49.013Z,102361.93
2019-05-15T14:01:15.569Z,102362.53
2019-05-15T14:03:42.271Z,102362.34
2019-05-15T14:06:09.643Z,102362.57
2019-05-15T14:08:38.323Z,102362.35
2019-05-15T14:11:08.617Z,102370.88
2019-05-15T14:13:34.992Z,102367.45
2019-05-15T14:16:02.094Z,102376.44
2019-05-15T14:18:30.703Z,102372.78
2019-05-15T14:20:58.380Z,102374.22
2019-05-15T14:23:25.550Z,102368.65
2019-05-15T14:25:52.439Z,102357.80
2019-05-15T14:28:19.159Z,102364.82
2019-05-15T14:30:45.940Z,102357.31
2019-05-15T14:33:15.093Z,102361.02
2019-05-15T14:35:41.901Z,102364.89
2019-05-15T14:38:10.333Z,102357.97
2019-05-15T14:40:37.532Z,102351.46
2019-05-15T14:43:04.449Z,102352.70
2019-05-15T14:45:31.031Z,102361.94
2019-05-15T14:47:58.265Z,102359.41
2019-05-15T14:50:24.895Z,102361.66
2019-05-15T14:52:53.979Z,102360.91
2019-05-15T14:55:20.572Z,102353.88
2019-05-15T14:57:48.704Z,102354.72
2019-05-15T15:00:20.021Z,102348.16
2019-05-15T15:02:45.710Z,102359.88
2019-05-15T15:05:12.485Z,102352.30
2019-05-15T15:07:40.449Z,102353.30
2019-05-15T15:10:08.074Z,102356.41
2019-05-15T15:12:34.963Z,102365.03
2019-05-15T15:15:01.569Z,102364.33
2019-05-15T15:17:28.884Z,102355.02
2019-05-15T15:19:59.948Z,102350.93
2019-05-15T15:22:24.297Z,102360.12
2019-05-15T15:24:50.974Z,102358.09
2019-05-15T15:27:18.164Z,102365.47
2019-05-15T15:29:45.152Z,102361.75
2019-05-15T15:32:12.243Z,102369.21
2019-05-15T15:34:38.940Z,102371.28
2019-05-15T15:37:05.518Z,102367.77
2019-05-15T15:39:32.194Z,102364.41
2019-05-15T15:41:58.856Z,102356.56
2019-05-15T15:44:27.920Z,102364.86
2019-05-15T15:46:54.422Z,102364.66
2019-05-15T15:49:21.120Z,102362.34
2019-05-15T15:51:48.751Z,102366.09
2019-05-15T15:54:15.596Z,102367.17
2019-05-15T15:56:42.360Z,102359.72
2019-05-15T15:59:09.048Z,102362.81
2019-05-15T16:01:36.122Z,102369.34
2019-05-15T16:04:04.496Z,102359.23
2019-05-15T16:06:31.161Z,102365.39
2019-05-15T16:08:59.573Z,102356.15
2019-05-15T16:11:27.957Z,102361.09
2019-05-15T16:13:58.570Z,102363.72
2019-05-15T16:16:25.349Z,102359.45
2019-05-15T16:18:52.033Z,102358.34
2019-05-15T16:21:19.316Z,102354.34
2019-05-15T16:23:48.069Z,102348.16
2019-05-15T16:26:15.011Z,102340.34
2019-05-15T16:28:41.805Z,102344.89
2019-05-15T16:31:08.687Z,102337.70
2019-05-15T16:33:35.332Z,102343.25
2019-05-15T16:36:01.957Z,102339.69
2019-05-15T16:38:29.012Z,102340.55
2019-05-15T16:40:58.279Z,102342.67
2019-05-15T16:43:28.352Z,102337.61
2019-05-15T16:45:54.529Z,102331.33
2019-05-15T16:48:21.174Z,102333.72
2019-05-15T16:50:48.718Z,102330.94
2019-05-15T16:53:17.834Z,102334.48
2019-05-15T16:55:44.377Z,102335.37
2019-05-15T16:58:11.112Z,102333.33
2019-05-15T17:00:38.409Z,102328.23
2019-05-15T17:03:13.780Z,102335.66
2019-05-15T17:05:35.264Z,102331.79
2019-05-15T17:08:02.115Z,102340.27
2019-05-15T17:10:28.908Z,102339.46
2019-05-15T17:12:58.155Z,102332.33
2019-05-15T17:15:24.335Z,102337.23
2019-05-15T17:17:51.150Z,102342.59
2019-05-15T17:20:18.214Z,102339.55
2019-05-15T17:22:44.938Z,102336.83
2019-05-15T17:25:11.785Z,102331.83
2019-05-15T17:27:38.763Z,102341.05
2019-05-15T17:30:09.347Z,102332.94
2019-05-15T17:32:38.557Z,102323.01
2019-05-15T17:35:04.880Z,102326.16
2019-05-15T17:37:32.139Z,102325.26
2019-05-15T17:39:59.061Z,102318.11
2019-05-15T17:42:25.748Z,102322.59
2019-05-15T17:44:52.832Z,102314.23
2019-05-15T17:47:19.543Z,102311.83
2019-05-15T17:49:48.144Z,102315.70
2019-05-15T17:52:14.933Z,102309.38
2019-05-15T17:54:44.481Z,102304.96
2019-05-15T17:57:10.780Z,102315.99
2019-05-15T17:59:37.918Z,102307.48
2019-05-15T18:02:05.064Z,102313.39
2019-05-15T18:04:32.056Z,102309.27
2019-05-15T18:06:59.235Z,102308.06
2019-05-15T18:09:27.920Z,102310.50
2019-05-15T18:11:54.619Z,102304.03
2019-05-15T18:14:21.504Z,102311.13
2019-05-15T18:16:50.930Z,102305.35
2019-05-15T18:19:18.759Z,102305.46
2019-05-15T18:21:46.753Z,102304.45
2019-05-15T18:24:13.736Z,102311.37
2019-05-15T18:26:40.451Z,102306.34
2019-05-15T18:29:09.054Z,102308.03
2019-05-15T18:31:37.957Z,102305.73
2019-05-15T18:34:04.591Z,102308.77
2019-05-15T18:36:31.235Z,102313.20
2019-05-15T18:38:58.885Z,102316.78
2019-05-15T18:41:25.852Z,102315.87
2019-05-15T18:43:52.569Z,102315.52
2019-05-15T18:46:19.261Z,102320.83
2019-05-15T18:48:45.927Z,102315.80
2019-05-15T18:51:12.564Z,102315.62
2019-05-15T18:53:39.508Z,102302.30
2019-05-15T18:56:08.765Z,102311.92
2019-05-15T18:58:38.000Z,102309.27
2019-05-15T19:01:04.490Z,102309.02
2019-05-15T19:03:32.435Z,102313.61
2019-05-15T19:06:00.687Z,102314.58
2019-05-15T19:08:28.235Z,102312.53
2019-05-15T19:10:55.073Z,102315.97
2019-05-15T19:13:21.931Z,102304.42
2019-05-15T19:15:48.895Z,102313.82
2019-05-15T19:18:15.649Z,102314.44
2019-05-15T19:20:42.450Z,102312.83
2019-05-15T19:23:09.104Z,102316.64
2019-05-15T19:25:36.107Z,102311.48
2019-05-15T19:28:02.874Z,102313.70
2019-05-15T19:30:29.806Z,102321.20
2019-05-15T19:32:58.524Z,102318.63
2019-05-15T19:35:25.282Z,102322.68
2019-05-15T19:37:51.971Z,102329.66
2019-05-15T19:40:18.894Z,102323.16
2019-05-15T19:42:45.941Z,102329.19
2019-05-15T19:45:17.433Z,102318.88
2019-05-15T19:47:53.916Z,102320.33
2019-05-15T19:50:21.402Z,102319.77
2019-05-15T19:52:48.361Z,102319.05
2019-05-15T19:55:15.012Z,102321.02
2019-05-15T19:57:41.969Z,102323.94
2019-05-15T20:00:11.417Z,102320.22
2019-05-15T20:02:38.445Z,102324.41
2019-05-15T20:05:05.336Z,102329.92
2019-05-15T20:07:32.385Z,102329.55
2019-05-15T20:09:59.446Z,102330.61
2019-05-15T20:12:28.117Z,102325.73
2019-05-15T20:15:01.070Z,102327.11
2019-05-15T20:17:28.040Z,102323.80
2019-05-15T20:19:55.109Z,102326.97
2019-05-15T20:22:22.085Z,102327.08
2019-05-15T20:24:49.160Z,102325.32
2019-05-15T20:27:18.793Z,102320.22
2019-05-15T20:29:45.866Z,102323.12
2019-05-15T20:32:12.482Z,102322.11
2019-05-15T20:34:39.257Z,102323.61
2019-05-15T20:37:06.153Z,102316.42
2019-05-15T20:39:35.605Z,102316.67
2019-05-15T20:42:02.213Z,102312.30
2019-05-15T20:44:28.837Z,102320.11
2019-05-15T20:46:55.469Z,102325.16
2019-05-15T20:49:22.621Z,102318.52
2019-05-15T20:51:49.327Z,102314.92
2019-05-15T20:54:16.484Z,102319.62
2019-05-15T20:56:43.473Z,102318.59
2019-05-15T20:59:10.175Z,102324.37
2019-05-15T21:01:37.758Z,102319.16
2019-05-15T21:04:16.921Z,102323.00
2019-05-15T21:06:33.381Z,102312.49
2019-05-15T21:09:01.156Z,102317.11
2019-05-15T21:11:28.501Z,102313.14
2019-05-15T21:13:55.213Z,102304.52
2019-05-15T21:16:22.241Z,102301.14
2019-05-15T21:18:49.033Z,102300.67
2019-05-15T21:21:18.861Z,102307.68
2019-05-15T21:23:44.935Z,102310.81
2019-05-15T21:26:11.572Z,102304.31
2019-05-15T21:28:39.080Z,102309.92
2019-05-15T21:31:08.624Z,102306.11
2019-05-15T21:33:35.179Z,102310.23
2019-05-15T21:36:02.059Z,102306.98
2019-05-15T21:38:28.685Z,102305.30
2019-05-15T21:40:55.253Z,102298.41
2019-05-15T21:43:21.958Z,102302.42
2019-05-15T21:45:49.111Z,102296.42
2019-05-15T21:48:18.258Z,102307.84
2019-05-15T21:50:44.818Z,102308.44
2019-05-15T21:53:11.625Z,102301.12
2019-05-15T21:55:38.819Z,102299.11
2019-05-15T21:58:08.539Z,102301.99
2019-05-15T22:00:38.537Z,102300.93
2019-05-15T22:03:06.586Z,102290.45
2019-05-15T22:05:33.283Z,102294.27
2019-05-15T22:07:59.975Z,102294.34
2019-05-15T22:10:28.809Z,102289.77
2019-05-15T22:12:55.699Z,102284.91
2019-05-15T22:15:22.356Z,102284.91
2019-05-15T22:17:49.777Z,102285.80
2019-05-15T22:20:16.797Z,102285.10
2019-05-15T22:22:43.580Z,102277.80
2019-05-15T22:25:11.491Z,102285.56
2019-05-15T22:27:38.477Z,102276.79
2019-05-15T22:30:07.830Z,102276.79
2019-05-15T22:32:34.395Z,102271.80
2019-05-15T22:35:09.321Z,102266.22
2019-05-15T22:37:29.688Z,102261.47
2019-05-15T22:39:57.985Z,102266.48
2019-05-15T22:42:25.325Z,102245.73
2019-05-15T22:44:52.256Z,102245.73
2019-05-15T22:47:19.970Z,102256.86
2019-05-15T22:49:48.531Z,102256.86
2019-05-15T22:52:18.323Z,102247.28
2019-05-15T22:54:44.735Z,102245.79
2019-05-15T22:57:11.593Z,102238.09
2019-05-15T22:59:38.409Z,102237.61
2019-05-15T23:02:05.603Z,102234.28
2019-05-15T23:04:33.121Z,102226.77
2019-05-15T23:07:00.808Z,102219.50
2019-05-15T23:09:28.445Z,102217.91
2019-05-15T23:11:55.470Z,102217.80
2019-05-15T23:14:22.621Z,102211.52
2019-05-15T23:16:49.611Z,102218.23
2019-05-15T23:19:18.568Z,102213.63
2019-05-15T23:21:45.528Z,102225.38
2019-05-15T23:24:12.135Z,102225.38
2019-05-15T23:26:39.319Z,102219.23
2019-05-15T23:29:07.885Z,102218.25
2019-05-15T23:31:34.525Z,102219.30
2019-05-15T23:34:01.154Z,102213.45
2019-05-15T23:36:28.438Z,102217.02
2019-05-15T23:38:55.391Z,102211.37
2019-05-15T23:41:22.258Z,102214.51
2019-05-15T23:43:49.149Z,102214.86
2019-05-15T23:46:18.204Z,102214.81
2019-05-15T23:48:44.322Z,102200.20
2019-05-15T23:51:10.996Z,102200.20
2019-05-15T23:53:37.601Z,102206.58
2019-05-15T23:56:04.297Z,102202.67
2019-05-15T23:58:30.971Z,102202.67
